Terminal Aerodrome Forecast
Issued by NWS

Current Version | Previous Version | Graphics & Text | Print | Product List | Glossary On
Versions: 1 2 3 4 5 6 7 8 9 10 11 12 13 14 15 16 17
706
FTUS41 KPBZ 202320
TAFHLG
TAF
KHLG 202320Z 2100/2124 20004KT P6SM OVC030
     FM210030 16004KT P6SM -RA OVC025
     FM210400 21003KT 4SM BR OVC015
     FM210900 26003KT 3SM BR OVC008
     FM211400 33006KT P6SM BKN015
     FM211700 33006KT P6SM BKN035=

USA.gov is the U.S. government's official web portal to all federal, state and local government web resources and services.